Time;durP1;ratioP1;P1;durP2;ratioP2;P2;SDS_P1;SDS_P2;PMS_P1;PMS_P2;Temp;Humidity;BMP_temperature;BMP_pressure;BME280_temperature;BME280_humidity;BME280_pressure;Samples;Min_cycle;Max_cycle;Signal;HPM_P1;HPM_P2
2023/09/24 00:02:07;;;;;;;5.80;2.47;;;;;;;;;;4976116;28;20053;-68
2023/09/24 00:04:33;;;;;;;3.80;2.30;;;;;;;;;;4976342;28;20125;-68
2023/09/24 00:06:59;;;;;;;4.07;2.40;;;;;;;;;;4975290;28;20038;-68
2023/09/24 00:09:25;;;;;;;3.47;2.33;;;;;;;;;;4976440;28;20046;-68
2023/09/24 00:11:51;;;;;;;2.65;1.77;;;;;;;;;;4975938;28;20054;-67
2023/09/24 00:14:17;;;;;;;5.50;2.00;;;;;;;;;;4995185;28;20457;-68
2023/09/24 00:16:43;;;;;;;5.53;2.20;;;;;;;;;;4994880;28;20039;-68
2023/09/24 00:19:09;;;;;;;3.40;2.20;;;;;;;;;;4995307;28;20050;-68
2023/09/24 00:21:36;;;;;;;3.15;1.88;;;;;;;;;;4995422;28;20042;-68
2023/09/24 00:24:03;;;;;;;2.85;2.10;;;;;;;;;;4993499;28;20053;-68
2023/09/24 00:26:29;;;;;;;2.13;1.90;;;;;;;;;;4974061;28;20058;-68
2023/09/24 00:28:56;;;;;;;2.92;2.30;;;;;;;;;;4976155;28;20042;-68
2023/09/24 00:31:22;;;;;;;3.13;1.98;;;;;;;;;;4975780;28;20425;-68
2023/09/24 00:33:48;;;;;;;3.33;1.80;;;;;;;;;;4991685;28;20049;-68
2023/09/24 00:36:15;;;;;;;10.73;2.60;;;;;;;;;;4994440;28;20042;-68
2023/09/24 00:38:41;;;;;;;4.10;2.30;;;;;;;;;;4995063;28;20046;-68
2023/09/24 00:41:07;;;;;;;6.57;2.10;;;;;;;;;;4994241;28;20038;-68
2023/09/24 00:43:34;;;;;;;9.48;1.63;;;;;;;;;;4998106;28;20031;-68
2023/09/24 00:46:01;;;;;;;3.15;2.03;;;;;;;;;;4975507;28;20090;-68
2023/09/24 00:48:30;;;;;;;11.10;2.20;;;;;;;;;;4975012;28;20038;-68
2023/09/24 00:50:57;;;;;;;6.03;2.10;;;;;;;;;;4975238;28;20503;-68
2023/09/24 00:53:27;;;;;;;20.77;2.45;;;;;;;;;;4974567;28;20043;-68
2023/09/24 00:55:54;;;;;;;5.20;1.83;;;;;;;;;;4975548;28;20053;-68
2023/09/24 00:58:20;;;;;;;2.00;1.67;;;;;;;;;;4974749;28;20042;-69
2023/09/24 01:00:46;;;;;;;3.42;1.90;;;;;;;;;;4975399;28;20501;-69
2023/09/24 01:03:14;;;;;;;9.75;2.15;;;;;;;;;;4993568;28;20039;-69
2023/09/24 01:05:41;;;;;;;6.38;2.60;;;;;;;;;;4994205;28;20050;-69
2023/09/24 01:08:07;;;;;;;16.98;2.40;;;;;;;;;;4994099;28;20082;-69
2023/09/24 01:10:33;;;;;;;7.82;1.92;;;;;;;;;;4994837;28;20038;-69
2023/09/24 01:12:59;;;;;;;18.70;2.83;;;;;;;;;;4994644;28;20039;-69
2023/09/24 01:15:25;;;;;;;3.30;1.67;;;;;;;;;;4992458;28;20046;-69
2023/09/24 01:17:52;;;;;;;2.55;1.77;;;;;;;;;;4993816;28;20038;-69
2023/09/24 01:20:21;;;;;;;20.05;2.78;;;;;;;;;;4994594;28;20523;-69
2023/09/24 01:22:47;;;;;;;22.00;2.80;;;;;;;;;;4994125;28;20538;-69
2023/09/24 01:25:14;;;;;;;11.13;2.83;;;;;;;;;;4994390;28;20066;-69
2023/09/24 01:27:39;;;;;;;16.23;3.30;;;;;;;;;;4993629;28;20496;-69
2023/09/24 01:30:06;;;;;;;15.80;3.50;;;;;;;;;;4994222;28;20050;-69
2023/09/24 01:32:32;;;;;;;14.13;3.60;;;;;;;;;;4993200;28;20121;-69
2023/09/24 01:35:06;;;;;;;6.55;2.78;;;;;;;;;;4993605;28;20489;-69
2023/09/24 01:37:34;;;;;;;12.70;3.70;;;;;;;;;;4987278;28;20039;-69
2023/09/24 01:40:01;;;;;;;5.63;3.08;;;;;;;;;;4993244;28;20051;-69
2023/09/24 01:42:27;;;;;;;6.53;3.47;;;;;;;;;;4974670;28;20046;-69
2023/09/24 01:44:54;;;;;;;9.93;4.00;;;;;;;;;;4974504;28;20338;-69
2023/09/24 01:47:22;;;;;;;14.23;4.18;;;;;;;;;;4992232;28;20046;-69
2023/09/24 01:49:49;;;;;;;21.17;4.38;;;;;;;;;;5001123;28;20129;-69
2023/09/24 01:52:16;;;;;;;12.88;5.30;;;;;;;;;;4974058;28;20046;-69
2023/09/24 01:54:42;;;;;;;24.08;5.25;;;;;;;;;;4974456;28;20126;-69
2023/09/24 01:57:08;;;;;;;20.73;5.38;;;;;;;;;;4973467;28;20476;-69
2023/09/24 01:59:34;;;;;;;74.45;7.18;;;;;;;;;;4974151;28;20058;-69
2023/09/24 02:02:01;;;;;;;24.55;5.22;;;;;;;;;;4973997;28;20093;-69
2023/09/24 02:04:27;;;;;;;24.13;5.38;;;;;;;;;;4973742;28;20081;-69
2023/09/24 02:06:53;;;;;;;29.90;5.38;;;;;;;;;;4987713;28;20042;-69
2023/09/24 02:09:19;;;;;;;16.75;4.90;;;;;;;;;;4992046;28;20072;-69
2023/09/24 02:11:45;;;;;;;13.77;4.55;;;;;;;;;;4993058;28;20049;-69
2023/09/24 02:14:12;;;;;;;11.38;4.53;;;;;;;;;;4998981;28;20119;-68
2023/09/24 02:16:38;;;;;;;15.60;4.90;;;;;;;;;;5015612;23;20041;-71
2023/09/24 02:19:04;;;;;;;13.85;4.68;;;;;;;;;;5030145;28;20046;-71
2023/09/24 02:21:31;;;;;;;7.60;4.68;;;;;;;;;;5032376;28;20045;-71
2023/09/24 02:23:57;;;;;;;15.10;4.97;;;;;;;;;;5023154;28;20057;-71
2023/09/24 02:26:23;;;;;;;15.23;4.60;;;;;;;;;;5022789;28;20073;-71
2023/09/24 02:28:49;;;;;;;8.38;4.25;;;;;;;;;;5031097;28;20503;-71
2023/09/24 02:31:15;;;;;;;10.82;4.43;;;;;;;;;;5032217;28;20052;-71
2023/09/24 02:33:41;;;;;;;13.75;4.28;;;;;;;;;;5032096;28;20073;-71
2023/09/24 02:36:08;;;;;;;9.77;3.78;;;;;;;;;;5030981;28;20380;-71
2023/09/24 02:38:34;;;;;;;10.70;3.90;;;;;;;;;;5025112;28;20042;-71
2023/09/24 02:41:00;;;;;;;7.10;3.70;;;;;;;;;;5032371;28;20397;-71
2023/09/24 02:43:29;;;;;;;5.28;3.47;;;;;;;;;;5022264;28;20052;-71
2023/09/24 02:45:56;;;;;;;3.78;3.10;;;;;;;;;;5032555;28;20053;-71
2023/09/24 02:48:22;;;;;;;5.43;3.53;;;;;;;;;;5031305;28;20041;-71
2023/09/24 02:50:49;;;;;;;5.30;2.67;;;;;;;;;;5032168;28;20414;-71
2023/09/24 02:53:15;;;;;;;3.75;2.92;;;;;;;;;;5032152;28;20033;-71
2023/09/24 02:55:41;;;;;;;3.60;2.75;;;;;;;;;;5031812;28;20046;-71
2023/09/24 02:58:08;;;;;;;4.63;2.65;;;;;;;;;;5031369;28;20052;-72
2023/09/24 03:00:41;;;;;;;6.63;2.33;;;;;;;;;;5027373;28;20113;-71
2023/09/24 03:03:09;;;;;;;10.88;2.25;;;;;;;;;;5029019;28;20099;-71
2023/09/24 03:05:35;;;;;;;4.22;2.60;;;;;;;;;;5031969;28;20556;-71
2023/09/24 03:08:02;;;;;;;10.68;3.05;;;;;;;;;;5030307;28;20041;-71
2023/09/24 03:10:30;;;;;;;6.80;2.50;;;;;;;;;;5031487;28;20394;-71
2023/09/24 03:12:58;;;;;;;2.70;2.50;;;;;;;;;;5031758;28;20391;-71
2023/09/24 03:15:24;;;;;;;3.67;2.13;;;;;;;;;;5031896;28;20049;-71
2023/09/24 03:17:51;;;;;;;3.58;2.35;;;;;;;;;;5034823;28;20033;-71
2023/09/24 03:20:20;;;;;;;3.75;2.60;;;;;;;;;;5035540;28;20050;-71
2023/09/24 03:22:50;;;;;;;3.45;2.40;;;;;;;;;;5036170;28;20037;-71
2023/09/24 03:25:17;;;;;;;2.78;2.55;;;;;;;;;;5035973;28;20077;-71
2023/09/24 03:27:43;;;;;;;4.35;3.00;;;;;;;;;;5035519;28;20049;-71
2023/09/24 03:30:10;;;;;;;4.05;2.80;;;;;;;;;;5035737;28;20137;-71
2023/09/24 03:32:37;;;;;;;5.50;2.90;;;;;;;;;;5035668;28;20503;-71
2023/09/24 03:35:05;;;;;;;6.10;3.00;;;;;;;;;;5035727;28;20092;-71
2023/09/24 03:37:31;;;;;;;5.55;3.17;;;;;;;;;;5035224;28;20049;-71
2023/09/24 03:39:57;;;;;;;4.00;3.10;;;;;;;;;;5034314;28;20088;-71
2023/09/24 03:42:23;;;;;;;3.25;2.65;;;;;;;;;;5032739;28;20069;-71
2023/09/24 03:44:49;;;;;;;4.50;1.92;;;;;;;;;;5031156;28;20061;-71
2023/09/24 03:47:16;;;;;;;2.95;1.88;;;;;;;;;;5035241;28;20053;-71
2023/09/24 03:49:43;;;;;;;2.63;2.40;;;;;;;;;;5029876;28;20048;-71
2023/09/24 03:52:10;;;;;;;2.28;1.83;;;;;;;;;;5014452;28;20049;-70
2023/09/24 03:54:38;;;;;;;3.08;2.65;;;;;;;;;;5015189;28;20050;-71
2023/09/24 03:57:05;;;;;;;6.55;1.95;;;;;;;;;;5015237;28;20080;-71
2023/09/24 03:59:31;;;;;;;4.55;2.10;;;;;;;;;;5015224;28;20109;-71
2023/09/24 04:01:58;;;;;;;3.72;2.17;;;;;;;;;;5025927;28;20490;-70
2023/09/24 04:04:24;;;;;;;3.75;1.85;;;;;;;;;;5019170;28;20415;-70
2023/09/24 04:06:50;;;;;;;4.00;1.60;;;;;;;;;;5024946;28;20069;-70
2023/09/24 04:09:16;;;;;;;2.45;1.52;;;;;;;;;;5034371;28;20084;-70
2023/09/24 04:11:42;;;;;;;1.92;1.40;;;;;;;;;;5035332;28;20037;-70
2023/09/24 04:14:08;;;;;;;2.22;1.52;;;;;;;;;;5025489;28;20117;-70
2023/09/24 04:16:34;;;;;;;2.03;1.70;;;;;;;;;;5019404;28;20045;-70
2023/09/24 04:19:00;;;;;;;4.03;1.80;;;;;;;;;;5034196;28;20029;-70
2023/09/24 04:21:27;;;;;;;3.03;1.98;;;;;;;;;;5034909;28;20064;-70
2023/09/24 04:23:54;;;;;;;3.33;1.50;;;;;;;;;;5034872;28;20514;-70
2023/09/24 04:26:21;;;;;;;2.00;1.80;;;;;;;;;;5022224;28;20073;-70
2023/09/24 04:28:47;;;;;;;2.90;2.00;;;;;;;;;;5013227;28;20072;-70
2023/09/24 04:31:13;;;;;;;2.00;1.70;;;;;;;;;;5032908;28;20042;-70
2023/09/24 04:33:41;;;;;;;3.63;2.08;;;;;;;;;;5033995;28;20037;-71
2023/09/24 04:36:07;;;;;;;2.15;1.95;;;;;;;;;;5034267;28;20041;-70
2023/09/24 04:38:33;;;;;;;4.50;2.20;;;;;;;;;;5034363;28;20033;-70
2023/09/24 04:40:59;;;;;;;5.18;2.05;;;;;;;;;;5034672;28;20128;-70
2023/09/24 04:43:25;;;;;;;3.97;2.28;;;;;;;;;;5034077;28;20033;-70
2023/09/24 04:45:51;;;;;;;4.72;2.00;;;;;;;;;;5019354;28;20038;-70
2023/09/24 04:48:17;;;;;;;4.15;1.50;;;;;;;;;;5013988;28;20133;-70
2023/09/24 04:50:43;;;;;;;2.95;1.92;;;;;;;;;;5014225;28;20034;-70
2023/09/24 04:53:10;;;;;;;4.45;2.25;;;;;;;;;;5014194;28;20044;-70
2023/09/24 04:55:35;;;;;;;5.38;2.65;;;;;;;;;;5034036;28;20064;-70
2023/09/24 04:58:02;;;;;;;4.68;2.55;;;;;;;;;;5026173;28;20038;-70
2023/09/24 05:00:28;;;;;;;3.78;2.63;;;;;;;;;;5026003;28;20657;-71
2023/09/24 05:02:54;;;;;;;8.93;3.63;;;;;;;;;;5034172;28;20123;-71
2023/09/24 05:05:20;;;;;;;5.45;3.47;;;;;;;;;;5033988;28;20087;-71
2023/09/24 05:07:48;;;;;;;6.15;3.97;;;;;;;;;;5019415;28;20693;-71
2023/09/24 05:10:14;;;;;;;4.70;2.90;;;;;;;;;;5013915;28;20102;-71
2023/09/24 05:12:41;;;;;;;5.28;4.05;;;;;;;;;;5014351;28;20037;-71
2023/09/24 05:15:08;;;;;;;7.85;5.40;;;;;;;;;;5014050;28;20404;-71
2023/09/24 05:17:33;;;;;;;8.38;5.15;;;;;;;;;;5013038;28;20030;-71
2023/09/24 05:20:00;;;;;;;10.88;4.75;;;;;;;;;;5014118;28;20638;-71
2023/09/24 05:22:27;;;;;;;10.50;5.68;;;;;;;;;;5032242;28;20037;-71
2023/09/24 05:24:53;;;;;;;10.73;6.22;;;;;;;;;;5032988;28;20542;-71
2023/09/24 05:27:19;;;;;;;10.52;5.68;;;;;;;;;;5014898;28;20034;-71
2023/09/24 05:29:46;;;;;;;9.15;5.35;;;;;;;;;;5013571;28;20045;-71
2023/09/24 05:32:12;;;;;;;10.07;5.82;;;;;;;;;;5017149;28;20033;-71
2023/09/24 05:34:38;;;;;;;9.75;6.78;;;;;;;;;;5026777;28;20053;-71
2023/09/24 05:37:04;;;;;;;10.10;6.15;;;;;;;;;;5013573;28;20391;-71
2023/09/24 05:39:30;;;;;;;11.25;6.65;;;;;;;;;;5013371;28;20041;-71
2023/09/24 05:41:56;;;;;;;11.88;6.57;;;;;;;;;;5012904;28;20057;-71
2023/09/24 05:44:24;;;;;;;10.05;6.20;;;;;;;;;;5013257;28;20092;-71
2023/09/24 05:46:50;;;;;;;8.63;6.70;;;;;;;;;;5011680;28;20104;-71
2023/09/24 05:49:16;;;;;;;8.88;6.45;;;;;;;;;;5012851;28;20041;-71
2023/09/24 05:51:43;;;;;;;10.95;6.70;;;;;;;;;;5013664;28;20048;-71
2023/09/24 05:54:10;;;;;;;9.02;6.25;;;;;;;;;;5014069;28;20041;-71
2023/09/24 05:56:37;;;;;;;14.02;7.35;;;;;;;;;;5032801;28;20122;-71
2023/09/24 05:59:03;;;;;;;11.00;6.53;;;;;;;;;;5032678;28;20049;-71
2023/09/24 06:01:30;;;;;;;13.90;7.60;;;;;;;;;;5028376;28;20048;-71
2023/09/24 06:03:56;;;;;;;15.02;7.88;;;;;;;;;;5028397;28;20045;-71
2023/09/24 06:06:22;;;;;;;10.57;7.80;;;;;;;;;;5023284;28;20099;-71
2023/09/24 06:08:49;;;;;;;11.45;7.63;;;;;;;;;;5031121;28;20447;-71
2023/09/24 06:11:15;;;;;;;14.48;7.30;;;;;;;;;;5014969;28;20049;-71
2023/09/24 06:13:41;;;;;;;18.23;8.80;;;;;;;;;;5012888;28;20037;-71
2023/09/24 06:16:07;;;;;;;13.57;8.18;;;;;;;;;;5012055;28;20069;-71
2023/09/24 06:18:33;;;;;;;15.95;8.60;;;;;;;;;;5032690;28;20041;-71
2023/09/24 06:20:59;;;;;;;14.63;9.10;;;;;;;;;;5032795;28;20095;-71
2023/09/24 06:23:25;;;;;;;13.43;8.85;;;;;;;;;;5032562;28;20545;-71
2023/09/24 06:26:01;;;;;;;15.57;8.52;;;;;;;;;;5030593;28;20041;-71
2023/09/24 06:28:27;;;;;;;11.90;7.95;;;;;;;;;;5030909;28;20045;-71
2023/09/24 06:31:00;;;;;;;14.50;9.13;;;;;;;;;;5030532;28;20037;-71
2023/09/24 06:33:26;;;;;;;16.83;10.15;;;;;;;;;;5028229;28;20052;-71
2023/09/24 06:35:53;;;;;;;18.85;8.77;;;;;;;;;;5011002;28;20492;-71
2023/09/24 06:38:19;;;;;;;15.32;9.27;;;;;;;;;;5012751;28;20056;-71
2023/09/24 06:40:45;;;;;;;17.38;9.98;;;;;;;;;;5012160;28;20030;-71
2023/09/24 06:43:11;;;;;;;16.35;9.25;;;;;;;;;;5012633;28;20502;-70
2023/09/24 06:45:37;;;;;;;14.80;9.35;;;;;;;;;;5012378;28;20060;-71
2023/09/24 06:48:03;;;;;;;18.02;9.80;;;;;;;;;;5019448;28;20044;-71
2023/09/24 06:50:29;;;;;;;16.88;9.38;;;;;;;;;;5031788;28;20044;-71
2023/09/24 06:52:56;;;;;;;17.50;9.57;;;;;;;;;;5031800;28;20033;-71
2023/09/24 06:55:22;;;;;;;18.70;9.70;;;;;;;;;;5032087;28;20128;-71
2023/09/24 06:57:48;;;;;;;17.48;10.00;;;;;;;;;;5026124;28;20504;-70
2023/09/24 07:00:14;;;;;;;15.52;9.23;;;;;;;;;;5012068;28;20041;-70
2023/09/24 07:02:41;;;;;;;17.13;9.88;;;;;;;;;;5012421;28;20513;-70
2023/09/24 07:05:08;;;;;;;17.23;10.32;;;;;;;;;;5011669;28;20463;-71
2023/09/24 07:07:34;;;;;;;15.18;9.65;;;;;;;;;;5022513;28;20402;-71
2023/09/24 07:10:01;;;;;;;15.65;9.65;;;;;;;;;;5030126;28;20091;-71
2023/09/24 07:12:27;;;;;;;16.80;10.63;;;;;;;;;;5031735;28;20125;-71
2023/09/24 07:14:53;;;;;;;17.52;9.02;;;;;;;;;;5030460;28;20116;-71
2023/09/24 07:17:19;;;;;;;19.20;8.90;;;;;;;;;;5031250;28;20037;-71
2023/09/24 07:19:47;;;;;;;17.17;9.80;;;;;;;;;;5027076;28;20095;-71
2023/09/24 07:22:13;;;;;;;16.90;8.90;;;;;;;;;;5020392;28;20410;-71
2023/09/24 07:24:39;;;;;;;13.93;9.25;;;;;;;;;;5030390;28;20045;-71
2023/09/24 07:27:05;;;;;;;16.70;8.82;;;;;;;;;;5031398;28;20095;-71
2023/09/24 07:29:31;;;;;;;14.80;9.30;;;;;;;;;;5032061;28;20045;-71
2023/09/24 07:31:57;;;;;;;17.83;9.02;;;;;;;;;;5016993;28;20057;-71
2023/09/24 07:34:24;;;;;;;16.60;9.10;;;;;;;;;;5031835;28;20480;-71
2023/09/24 07:36:50;;;;;;;12.95;8.45;;;;;;;;;;5031557;28;20426;-71
2023/09/24 07:39:16;;;;;;;15.60;9.13;;;;;;;;;;5031489;28;20038;-71
2023/09/24 07:41:43;;;;;;;13.20;8.90;;;;;;;;;;5031930;28;20041;-71
2023/09/24 07:44:09;;;;;;;12.85;8.60;;;;;;;;;;5032383;28;20056;-71
2023/09/24 07:46:35;;;;;;;14.65;9.10;;;;;;;;;;5019869;28;20037;-71
2023/09/24 07:49:05;;;;;;;14.35;9.00;;;;;;;;;;5012537;28;20052;-71
2023/09/24 07:51:31;;;;;;;13.70;9.57;;;;;;;;;;5029892;28;20041;-71
2023/09/24 07:53:57;;;;;;;12.82;8.73;;;;;;;;;;5031132;28;20048;-71
2023/09/24 07:56:23;;;;;;;12.23;8.27;;;;;;;;;;5031230;28;20033;-71
2023/09/24 07:58:49;;;;;;;14.82;8.93;;;;;;;;;;5031525;28;20488;-71
2023/09/24 08:01:15;;;;;;;12.13;8.02;;;;;;;;;;5031523;28;20033;-71
2023/09/24 08:03:43;;;;;;;12.13;8.82;;;;;;;;;;5033754;28;20107;-71
2023/09/24 08:06:09;;;;;;;13.32;7.90;;;;;;;;;;5033340;28;20047;-71
2023/09/24 08:08:35;;;;;;;12.63;8.38;;;;;;;;;;5035345;28;20491;-71
2023/09/24 08:11:02;;;;;;;13.68;8.25;;;;;;;;;;5019391;28;20042;-71
2023/09/24 08:13:28;;;;;;;11.93;7.80;;;;;;;;;;5034360;28;20037;-71
2023/09/24 08:15:57;;;;;;;15.30;7.80;;;;;;;;;;5034523;28;20145;-71
2023/09/24 08:18:24;;;;;;;13.30;8.35;;;;;;;;;;5026721;28;20045;-71
2023/09/24 08:20:50;;;;;;;13.95;8.10;;;;;;;;;;5034364;28;20029;-71
2023/09/24 08:23:18;;;;;;;12.85;7.45;;;;;;;;;;5034610;28;20072;-71
2023/09/24 08:25:44;;;;;;;12.02;7.20;;;;;;;;;;5035027;28;20057;-71
2023/09/24 08:28:10;;;;;;;12.57;7.50;;;;;;;;;;5034251;28;20036;-71
2023/09/24 08:30:36;;;;;;;14.18;7.57;;;;;;;;;;5026750;28;20029;-71
2023/09/24 08:33:04;;;;;;;13.57;7.85;;;;;;;;;;5034430;28;20052;-71
2023/09/24 08:35:30;;;;;;;11.90;7.50;;;;;;;;;;5025915;28;20046;-71
2023/09/24 08:37:56;;;;;;;11.07;7.70;;;;;;;;;;5034262;28;20037;-71
2023/09/24 08:40:22;;;;;;;14.05;7.10;;;;;;;;;;5034838;28;20049;-71
2023/09/24 08:42:49;;;;;;;13.05;7.63;;;;;;;;;;5016239;28;20038;-71
2023/09/24 08:45:16;;;;;;;15.15;6.93;;;;;;;;;;5033847;28;20041;-71
2023/09/24 08:47:43;;;;;;;11.48;7.65;;;;;;;;;;5033915;28;20041;-71
2023/09/24 08:50:09;;;;;;;14.75;7.07;;;;;;;;;;5026475;28;20052;-71
2023/09/24 08:52:37;;;;;;;12.02;6.90;;;;;;;;;;5034142;28;20037;-71
2023/09/24 08:55:05;;;;;;;12.85;7.72;;;;;;;;;;5027088;28;20041;-71
2023/09/24 08:57:32;;;;;;;10.23;5.85;;;;;;;;;;5033027;28;20049;-71
2023/09/24 08:59:58;;;;;;;13.10;7.22;;;;;;;;;;5034166;28;20379;-71
2023/09/24 09:02:23;;;;;;;14.15;7.18;;;;;;;;;;5033158;28;20048;-71
2023/09/24 09:04:50;;;;;;;13.00;7.00;;;;;;;;;;5034456;28;20533;-71
2023/09/24 09:07:16;;;;;;;9.80;6.90;;;;;;;;;;5033437;28;20034;-71
2023/09/24 09:09:53;;;;;;;10.50;6.70;;;;;;;;;;5029870;28;20042;-71
2023/09/24 09:12:20;;;;;;;9.60;6.18;;;;;;;;;;5030823;28;20073;-71
2023/09/24 09:14:46;;;;;;;9.68;6.10;;;;;;;;;;5031971;28;20049;-71
2023/09/24 09:17:12;;;;;;;10.95;5.80;;;;;;;;;;5033347;28;20040;-71
2023/09/24 09:19:48;;;;;;;10.35;5.93;;;;;;;;;;5033729;28;20357;-71
2023/09/24 09:22:18;;;;;;;12.07;5.53;;;;;;;;;;5033437;28;20509;-72
2023/09/24 09:24:44;;;;;;;10.10;6.03;;;;;;;;;;5033812;28;20115;-72
2023/09/24 09:27:10;;;;;;;11.23;5.68;;;;;;;;;;5017509;28;20498;-72
2023/09/24 09:29:36;;;;;;;9.40;4.97;;;;;;;;;;5032760;28;20120;-72
2023/09/24 09:32:02;;;;;;;11.65;5.03;;;;;;;;;;5025197;28;20068;-72
2023/09/24 09:34:29;;;;;;;8.75;4.40;;;;;;;;;;5033086;28;20450;-71
2023/09/24 09:37:14;;;;;;;8.77;4.82;;;;;;;;;;5031567;28;20045;-72
2023/09/24 09:39:41;;;;;;;10.73;4.72;;;;;;;;;;5033638;28;20052;-72
2023/09/24 09:42:07;;;;;;;7.97;4.80;;;;;;;;;;5033316;28;20486;-71
2023/09/24 09:44:34;;;;;;;10.90;4.82;;;;;;;;;;5023617;28;20091;-71
2023/09/24 09:47:01;;;;;;;8.20;4.82;;;;;;;;;;5032909;28;20044;-72
2023/09/24 09:49:28;;;;;;;9.88;4.65;;;;;;;;;;5033214;28;20499;-72
2023/09/24 09:52:00;;;;;;;13.07;5.20;;;;;;;;;;5032492;28;20440;-72
2023/09/24 09:54:34;;;;;;;10.85;4.68;;;;;;;;;;5023416;28;20056;-72
2023/09/24 09:57:01;;;;;;;8.40;4.13;;;;;;;;;;5024984;28;20095;-72
2023/09/24 09:59:28;;;;;;;8.38;4.25;;;;;;;;;;5016892;28;20046;-72
2023/09/24 10:01:54;;;;;;;9.60;3.85;;;;;;;;;;5031266;28;20052;-72
2023/09/24 10:04:20;;;;;;;7.25;3.58;;;;;;;;;;5024744;28;20067;-72
2023/09/24 10:06:47;;;;;;;7.45;3.90;;;;;;;;;;5032714;28;20052;-72
2023/09/24 10:09:29;;;;;;;8.55;3.78;;;;;;;;;;5032518;28;20037;-73
2023/09/24 10:11:56;;;;;;;9.55;3.30;;;;;;;;;;5031753;28;20033;-72
2023/09/24 10:14:33;;;;;;;13.90;3.92;;;;;;;;;;5031466;28;20523;-72
2023/09/24 10:17:19;;;;;;;8.98;3.28;;;;;;;;;;5018095;28;20036;-72
2023/09/24 10:19:52;;;;;;;4.40;2.90;;;;;;;;;;5032741;28;20477;-72
2023/09/24 10:22:25;;;;;;;5.65;2.63;;;;;;;;;;5032797;28;20064;-72
2023/09/24 10:24:51;;;;;;;7.78;2.67;;;;;;;;;;5027194;28;20037;-72
2023/09/24 10:27:21;;;;;;;4.57;2.55;;;;;;;;;;5012405;28;20049;-72
2023/09/24 10:29:51;;;;;;;4.38;2.35;;;;;;;;;;5013012;28;20046;-72
2023/09/24 10:32:21;;;;;;;5.60;2.47;;;;;;;;;;5027499;28;20049;-71
2023/09/24 10:34:57;;;;;;;4.93;2.33;;;;;;;;;;5032628;28;20139;-71
2023/09/24 10:37:27;;;;;;;5.10;2.15;;;;;;;;;;5031752;28;20055;-71
2023/09/24 10:39:59;;;;;;;7.80;1.90;;;;;;;;;;5032573;28;20036;-72
2023/09/24 10:42:29;;;;;;;6.28;2.20;;;;;;;;;;5022080;28;20169;-71
2023/09/24 10:45:07;;;;;;;4.77;2.00;;;;;;;;;;5012538;28;20038;-71
2023/09/24 10:47:36;;;;;;;5.15;1.90;;;;;;;;;;5028648;28;20053;-72
2023/09/24 10:50:11;;;;;;;4.82;1.90;;;;;;;;;;5027099;28;20038;-72
2023/09/24 10:52:57;;;;;;;4.85;2.00;;;;;;;;;;5020523;28;20033;-71
2023/09/24 10:55:29;;;;;;;4.38;1.65;;;;;;;;;;5012577;28;20038;-72
2023/09/24 10:57:56;;;;;;;3.42;1.70;;;;;;;;;;5025433;28;20041;-72
2023/09/24 11:00:23;;;;;;;6.22;1.80;;;;;;;;;;5015179;28;20181;-72
2023/09/24 11:03:05;;;;;;;3.17;1.52;;;;;;;;;;5010920;28;20432;-71
2023/09/24 11:05:36;;;;;;;4.22;1.60;;;;;;;;;;5010948;28;20104;-71
2023/09/24 11:08:02;;;;;;;5.95;2.35;;;;;;;;;;5011537;28;20049;-71
2023/09/24 11:10:28;;;;;;;3.30;1.60;;;;;;;;;;5012301;28;20443;-71
2023/09/24 11:12:56;;;;;;;3.88;1.33;;;;;;;;;;5010882;28;20124;-71
2023/09/24 11:15:23;;;;;;;6.30;1.75;;;;;;;;;;5028872;28;20048;-71
2023/09/24 11:17:52;;;;;;;4.68;1.63;;;;;;;;;;5031316;28;20388;-71
2023/09/24 11:20:21;;;;;;;4.75;1.52;;;;;;;;;;5032032;28;20106;-71
2023/09/24 11:23:01;;;;;;;3.72;1.30;;;;;;;;;;5032126;28;20045;-71
2023/09/24 11:25:28;;;;;;;4.68;1.50;;;;;;;;;;5030216;28;20080;-71
2023/09/24 11:27:55;;;;;;;2.33;1.23;;;;;;;;;;5024879;28;20098;-71
2023/09/24 11:30:22;;;;;;;3.60;1.50;;;;;;;;;;5014313;28;20053;-71
2023/09/24 11:32:50;;;;;;;4.63;1.58;;;;;;;;;;5031586;28;20037;-71
2023/09/24 11:35:17;;;;;;;3.88;1.45;;;;;;;;;;5031631;28;20123;-71
2023/09/24 11:38:01;;;;;;;4.78;1.80;;;;;;;;;;5032731;28;20044;-71
2023/09/24 11:40:33;;;;;;;2.30;1.10;;;;;;;;;;5035476;28;20668;-71
2023/09/24 11:42:59;;;;;;;4.28;1.42;;;;;;;;;;5028277;28;20034;-71
2023/09/24 11:45:36;;;;;;;4.65;1.77;;;;;;;;;;5015625;28;20041;-71
2023/09/24 11:48:02;;;;;;;5.00;1.77;;;;;;;;;;5028949;28;20052;-71
2023/09/24 11:50:29;;;;;;;2.88;1.27;;;;;;;;;;5035497;28;20403;-71
2023/09/24 11:52:55;;;;;;;4.28;1.50;;;;;;;;;;5035574;28;20510;-71
2023/09/24 11:55:20;;;;;;;4.60;1.70;;;;;;;;;;5034841;28;20034;-71
2023/09/24 11:57:46;;;;;;;3.55;1.55;;;;;;;;;;5034714;28;20618;-72
2023/09/24 12:00:13;;;;;;;3.08;1.20;;;;;;;;;;5035296;28;20440;-72
2023/09/24 12:02:39;;;;;;;4.68;1.70;;;;;;;;;;5016119;28;20404;-72
2023/09/24 12:05:05;;;;;;;3.60;1.40;;;;;;;;;;5014878;28;20049;-71
2023/09/24 12:07:33;;;;;;;3.33;1.35;;;;;;;;;;5015143;28;20037;-71
2023/09/24 12:10:01;;;;;;;3.58;1.42;;;;;;;;;;5020732;28;20041;-71
2023/09/24 12:12:27;;;;;;;3.60;1.67;;;;;;;;;;5035399;28;20084;-71
2023/09/24 12:14:53;;;;;;;4.30;1.65;;;;;;;;;;5034535;28;20044;-71
2023/09/24 12:17:19;;;;;;;3.70;1.10;;;;;;;;;;5033533;28;20045;-71
2023/09/24 12:19:46;;;;;;;6.25;1.50;;;;;;;;;;5021927;28;20076;-71
2023/09/24 12:22:12;;;;;;;3.88;1.40;;;;;;;;;;5014932;28;20038;-71
2023/09/24 12:24:38;;;;;;;4.65;1.10;;;;;;;;;;5014660;28;20041;-71
2023/09/24 12:27:04;;;;;;;2.33;1.42;;;;;;;;;;5015031;28;20041;-71
2023/09/24 12:29:30;;;;;;;3.20;1.20;;;;;;;;;;5033077;28;20044;-71
2023/09/24 12:31:56;;;;;;;4.32;1.20;;;;;;;;;;5024910;28;20041;-71
2023/09/24 12:34:22;;;;;;;3.28;1.30;;;;;;;;;;5034351;28;20046;-71
2023/09/24 12:36:48;;;;;;;3.22;1.40;;;;;;;;;;5034423;28;20482;-71
2023/09/24 12:39:19;;;;;;;3.55;1.17;;;;;;;;;;5033861;28;20073;-71
2023/09/24 12:41:45;;;;;;;;;;;;;;;;;;5035265;28;20471;-71
2023/09/24 12:44:11;;;;;;;3.63;1.17;;;;;;;;;;5034746;28;19917;-71
2023/09/24 12:46:37;;;;;;;4.25;1.33;;;;;;;;;;5033947;28;20034;-71
2023/09/24 12:49:03;;;;;;;4.53;1.33;;;;;;;;;;5032796;28;20041;-71
2023/09/24 12:51:30;;;;;;;3.30;1.15;;;;;;;;;;5033187;28;20041;-71
2023/09/24 12:53:56;;;;;;;4.32;1.30;;;;;;;;;;5034558;28;20045;-71
2023/09/24 12:56:22;;;;;;;3.20;1.10;;;;;;;;;;5024363;28;20042;-71
2023/09/24 12:58:51;;;;;;;3.03;1.10;;;;;;;;;;5026084;28;20075;-71
2023/09/24 13:01:20;;;;;;;2.83;1.30;;;;;;;;;;5034203;28;20120;-71
2023/09/24 13:03:46;;;;;;;2.45;1.13;;;;;;;;;;5025766;28;20041;-71
2023/09/24 13:06:18;;;;;;;2.78;1.13;;;;;;;;;;5033649;28;20037;-71
2023/09/24 13:08:44;;;;;;;4.00;1.50;;;;;;;;;;5034026;28;20045;-71
2023/09/24 13:11:12;;;;;;;5.32;1.50;;;;;;;;;;5033903;28;20088;-71
2023/09/24 13:13:38;;;;;;;4.40;1.20;;;;;;;;;;5023651;28;20492;-71
2023/09/24 13:16:04;;;;;;;3.58;1.25;;;;;;;;;;5013570;28;20041;-71
2023/09/24 13:18:30;;;;;;;3.33;1.15;;;;;;;;;;5031559;28;20065;-71
2023/09/24 13:20:56;;;;;;;4.05;1.45;;;;;;;;;;5032326;28;20053;-71
2023/09/24 13:23:22;;;;;;;3.75;1.25;;;;;;;;;;5025583;28;20037;-71
2023/09/24 13:25:48;;;;;;;5.35;1.30;;;;;;;;;;5025713;28;20661;-72
2023/09/24 13:28:14;;;;;;;5.68;1.27;;;;;;;;;;5032892;28;20030;-71
2023/09/24 13:30:40;;;;;;;6.00;1.50;;;;;;;;;;5033197;28;20491;-71
2023/09/24 13:33:06;;;;;;;4.68;1.30;;;;;;;;;;5033723;28;20044;-71
2023/09/24 13:35:33;;;;;;;3.42;1.23;;;;;;;;;;5032037;28;20052;-71
2023/09/24 13:37:59;;;;;;;3.30;1.40;;;;;;;;;;5033058;28;20033;-71
2023/09/24 13:40:25;;;;;;;3.70;1.40;;;;;;;;;;5033240;28;20040;-71
2023/09/24 13:42:51;;;;;;;4.85;1.10;;;;;;;;;;5029589;28;20507;-71
2023/09/24 13:45:17;;;;;;;3.58;1.20;;;;;;;;;;5029001;28;20107;-71
2023/09/24 13:47:43;;;;;;;3.35;1.02;;;;;;;;;;5024810;28;20041;-71
2023/09/24 13:50:10;;;;;;;4.45;1.30;;;;;;;;;;5031287;28;20402;-71
2023/09/24 13:52:36;;;;;;;4.53;1.40;;;;;;;;;;5023327;28;20042;-71
2023/09/24 13:55:02;;;;;;;4.07;1.30;;;;;;;;;;5018255;28;20041;-71
2023/09/24 13:57:28;;;;;;;4.88;1.38;;;;;;;;;;5033034;28;20487;-71
2023/09/24 13:59:55;;;;;;;3.13;1.20;;;;;;;;;;5033072;28;20037;-71
2023/09/24 14:02:21;;;;;;;4.60;1.30;;;;;;;;;;5031061;28;20088;-71
2023/09/24 14:04:47;;;;;;;3.47;1.60;;;;;;;;;;5032702;28;20045;-71
2023/09/24 14:07:13;;;;;;;2.33;1.23;;;;;;;;;;5032954;28;20416;-71
2023/09/24 14:12:25;;;;;;;5.43;1.60;;;;;;;;;;5032502;28;20081;-71
2023/09/24 14:14:54;;;;;;;5.85;1.30;;;;;;;;;;5028829;28;20474;-71
2023/09/24 14:17:20;;;;;;;3.22;1.27;;;;;;;;;;5028569;28;20029;-71
2023/09/24 14:19:47;;;;;;;2.17;1.08;;;;;;;;;;5032139;28;20037;-71
2023/09/24 14:22:13;;;;;;;3.90;1.20;;;;;;;;;;5032632;28;20076;-71
2023/09/24 14:24:39;;;;;;;2.75;0.90;;;;;;;;;;5031169;28;20052;-71
2023/09/24 14:27:05;;;;;;;4.88;1.27;;;;;;;;;;5032428;28;20063;-71
2023/09/24 14:29:32;;;;;;;2.55;1.20;;;;;;;;;;5031910;28;20038;-71
2023/09/24 14:31:58;;;;;;;5.80;1.75;;;;;;;;;;5032280;28;20042;-70
2023/09/24 14:34:24;;;;;;;2.47;1.10;;;;;;;;;;5032720;28;20041;-70
2023/09/24 14:36:50;;;;;;;2.25;1.02;;;;;;;;;;5019885;28;20111;-70
2023/09/24 14:39:16;;;;;;;2.65;0.90;;;;;;;;;;5020069;28;20073;-71
2023/09/24 14:41:42;;;;;;;3.90;1.10;;;;;;;;;;5031943;28;20044;-71